Time;durP1;ratioP1;P1;durP2;ratioP2;P2;SDS_P1;SDS_P2;PMS_P1;PMS_P2;Temp;Humidity;BMP_temperature;BMP_pressure;BME280_temperature;BME280_humidity;BME280_pressure;Samples;Min_cycle;Max_cycle;Signal;HPM_P1;HPM_P2
2020/12/06 00:01:12;;;;;;;41.17;27.43;;;;;;;8.76;100.00;95974.28;5071804;28;20192;-67
2020/12/06 00:03:40;;;;;;;43.17;24.77;;;;;;;8.69;100.00;95971.19;5071626;28;20192;-67
2020/12/06 00:06:07;;;;;;;42.27;24.17;;;;;;;8.56;100.00;95977.75;5071454;28;20219;-65
2020/12/06 00:08:35;;;;;;;38.53;21.67;;;;;;;8.62;100.00;95976.66;5071377;28;20196;-67
2020/12/06 00:11:02;;;;;;;39.17;23.60;;;;;;;8.57;100.00;95979.28;5071593;28;20204;-67
2020/12/06 00:13:29;;;;;;;35.77;23.37;;;;;;;8.57;100.00;95981.09;5071388;28;20207;-67
2020/12/06 00:15:56;;;;;;;38.53;23.50;;;;;;;8.56;100.00;95975.16;5071616;28;20232;-67
2020/12/06 00:18:23;;;;;;;42.03;24.50;;;;;;;8.55;100.00;95980.59;5071269;28;20193;-67
2020/12/06 00:20:50;;;;;;;34.60;21.27;;;;;;;8.61;100.00;95976.97;5071153;28;20630;-65
2020/12/06 00:23:20;;;;;;;34.20;21.13;;;;;;;8.56;100.00;95977.75;5070991;28;20203;-66
2020/12/06 00:25:49;;;;;;;40.97;22.27;;;;;;;8.46;100.00;95988.19;5071140;28;20188;-66
2020/12/06 00:28:15;;;;;;;40.17;23.40;;;;;;;8.47;100.00;95994.09;5070926;28;20274;-67
2020/12/06 00:30:42;;;;;;;44.80;27.30;;;;;;;8.53;100.00;95978.28;5070725;28;20188;-65
2020/12/06 00:33:10;;;;;;;38.73;23.90;;;;;;;8.47;100.00;95989.69;5070762;28;20193;-66
2020/12/06 00:35:36;;;;;;;38.00;22.53;;;;;;;8.48;100.00;95991.25;5071333;28;20259;-66
2020/12/06 00:38:04;;;;;;;37.23;23.50;;;;;;;8.44;100.00;95982.47;5070732;28;20748;-66
2020/12/06 00:40:31;;;;;;;35.00;23.47;;;;;;;8.41;100.00;95988.19;5070688;28;20232;-66
2020/12/06 00:42:58;;;;;;;35.87;22.60;;;;;;;8.47;100.00;95981.94;5070683;28;20196;-65
2020/12/06 00:45:25;;;;;;;37.10;22.37;;;;;;;8.45;100.00;95978.84;5070554;28;20778;-66
2020/12/06 00:47:52;;;;;;;37.17;22.67;;;;;;;8.42;100.00;95987.13;5070679;28;20646;-65
2020/12/06 00:50:20;;;;;;;40.17;25.00;;;;;;;8.43;100.00;95983.50;5070604;28;20197;-66
2020/12/06 00:52:46;;;;;;;38.93;22.70;;;;;;;8.39;100.00;95979.91;5070465;28;20234;-66
2020/12/06 00:55:14;;;;;;;37.10;24.10;;;;;;;8.33;100.00;95980.97;5070430;28;20228;-66
2020/12/06 00:57:41;;;;;;;40.20;22.43;;;;;;;8.42;100.00;95974.19;5070394;28;20196;-66
2020/12/06 01:00:09;;;;;;;33.47;21.63;;;;;;;8.41;100.00;95980.44;5070412;28;20691;-67
2020/12/06 01:02:36;;;;;;;35.70;21.00;;;;;;;8.41;100.00;95964.91;5070040;28;20677;-66
2020/12/06 01:05:04;;;;;;;41.17;24.97;;;;;;;8.38;100.00;95965.41;5070622;28;20754;-66
2020/12/06 01:10:54;;;;;;;40.13;23.67;;;;;;;8.38;100.00;95978.34;5070708;28;20176;-65
2020/12/06 01:13:23;;;;;;;36.27;22.63;;;;;;;8.34;100.00;95961.81;5070393;28;20200;-67
2020/12/06 01:15:50;;;;;;;34.90;21.80;;;;;;;8.33;100.00;95973.19;5070126;28;20595;-66
2020/12/06 01:18:18;;;;;;;40.03;21.10;;;;;;;8.32;100.00;95966.47;5070349;28;20618;-68
2020/12/06 01:20:49;;;;;;;36.33;21.07;;;;;;;8.31;100.00;95959.00;5070168;28;20659;-65
2020/12/06 01:23:16;;;;;;;37.70;21.63;;;;;;;8.30;100.00;95968.56;5070262;28;20192;-67
2020/12/06 01:25:43;;;;;;;33.60;18.87;;;;;;;8.34;100.00;95958.44;5069974;28;20659;-66
2020/12/06 01:28:11;;;;;;;35.77;17.90;;;;;;;8.29;100.00;95950.69;5070036;28;20671;-66
2020/12/06 01:30:38;;;;;;;46.57;27.60;;;;;;;8.31;100.00;95964.16;5070106;28;20731;-67
2020/12/06 01:33:05;;;;;;;34.93;22.67;;;;;;;8.34;100.00;95956.63;5070085;28;20702;-67
2020/12/06 01:35:32;;;;;;;43.67;23.67;;;;;;;8.37;100.00;95957.94;5069875;28;20242;-65
2020/12/06 01:38:00;;;;;;;37.97;21.13;;;;;;;8.39;100.00;95954.00;5069942;28;20604;-66
2020/12/06 01:40:58;;;;;;;32.53;19.47;;;;;;;8.40;100.00;95950.41;5066720;28;20240;-67
2020/12/06 01:43:26;;;;;;;34.23;19.97;;;;;;;8.42;100.00;95956.06;5069910;28;20584;-66
2020/12/06 01:45:54;;;;;;;35.80;22.40;;;;;;;8.42;100.00;95950.13;5070086;28;20204;-67
2020/12/06 01:48:21;;;;;;;33.67;19.97;;;;;;;8.44;100.00;95950.63;5069808;28;20318;-67
2020/12/06 01:50:48;;;;;;;33.63;20.40;;;;;;;8.31;100.00;95948.63;5069880;28;20575;-66
2020/12/06 01:53:15;;;;;;;30.77;19.90;;;;;;;8.40;100.00;95950.41;5069870;28;20207;-66
2020/12/06 01:55:45;;;;;;;31.63;18.33;;;;;;;8.37;100.00;95952.75;5069645;28;20224;-64
2020/12/06 01:58:11;;;;;;;27.70;16.70;;;;;;;8.36;100.00;95940.84;5070161;28;20208;-66
2020/12/06 02:00:39;;;;;;;36.67;21.33;;;;;;;8.35;100.00;95947.81;5069669;28;20195;-66
2020/12/06 02:03:06;;;;;;;34.67;21.10;;;;;;;8.42;100.00;95940.53;5069786;28;20196;-66
2020/12/06 02:05:39;;;;;;;33.33;20.63;;;;;;;8.35;100.00;95942.66;5069674;28;20192;-66
2020/12/06 02:08:05;;;;;;;40.67;24.63;;;;;;;8.37;100.00;95940.56;5069831;28;20199;-65
2020/12/06 02:10:32;;;;;;;32.03;18.60;;;;;;;8.41;100.00;95941.59;5069873;28;20203;-66
2020/12/06 02:12:59;;;;;;;35.80;22.20;;;;;;;8.38;100.00;95936.94;5069667;28;20291;-66
2020/12/06 02:15:26;;;;;;;36.43;19.07;;;;;;;8.45;100.00;95932.22;5071767;28;20236;-66
2020/12/06 02:17:53;;;;;;;31.40;18.17;;;;;;;8.34;100.00;95941.09;5073346;28;20542;-66
2020/12/06 02:20:24;;;;;;;28.80;18.50;;;;;;;8.30;100.00;95942.69;5073749;28;20199;-65
2020/12/06 02:22:51;;;;;;;30.87;18.53;;;;;;;8.38;100.00;95944.69;5073678;28;20200;-67
2020/12/06 02:25:18;;;;;;;29.70;16.70;;;;;;;8.41;100.00;95941.59;5073526;28;20291;-67
2020/12/06 02:27:46;;;;;;;30.03;18.87;;;;;;;8.33;100.00;95942.13;5073152;28;20201;-67
2020/12/06 02:30:13;;;;;;;30.20;18.90;;;;;;;8.36;100.00;95935.66;5073740;28;20200;-66
2020/12/06 02:32:43;;;;;;;32.83;19.00;;;;;;;8.38;100.00;95930.97;5073590;28;20197;-67
2020/12/06 02:35:10;;;;;;;27.07;17.07;;;;;;;8.35;100.00;95934.88;5073430;28;20228;-66
2020/12/06 02:37:38;;;;;;;29.83;17.30;;;;;;;8.37;100.00;95925.00;5073518;28;20220;-65
2020/12/06 02:40:09;;;;;;;29.47;16.87;;;;;;;8.38;100.00;95929.16;5073007;28;20229;-65
2020/12/06 02:42:37;;;;;;;28.00;18.07;;;;;;;8.31;100.00;95928.69;5073087;28;20196;-67
2020/12/06 02:45:04;;;;;;;26.73;16.63;;;;;;;8.38;100.00;95929.16;5072989;28;20232;-67
2020/12/06 02:47:31;;;;;;;32.70;17.37;;;;;;;8.41;100.00;95926.06;5072832;28;20733;-66
2020/12/06 02:49:57;;;;;;;37.47;18.97;;;;;;;8.39;100.00;95920.34;5072786;28;20195;-66
2020/12/06 02:52:33;;;;;;;32.67;18.53;;;;;;;8.39;100.00;95922.16;5072780;28;20196;-66
2020/12/06 02:55:01;;;;;;;27.00;16.67;;;;;;;8.39;100.00;95910.00;5072773;28;20228;-66
2020/12/06 02:57:28;;;;;;;27.03;16.63;;;;;;;8.25;100.00;95921.97;5072989;28;20227;-66
2020/12/06 02:59:55;;;;;;;28.03;16.57;;;;;;;8.28;100.00;95916.25;5072908;28;20226;-66
2020/12/06 03:02:21;;;;;;;27.90;15.80;;;;;;;8.27;100.00;95916.53;5072918;28;20196;-65
2020/12/06 03:04:48;;;;;;;29.17;16.83;;;;;;;8.22;100.00;95914.72;5072718;28;20193;-65
2020/12/06 03:07:15;;;;;;;31.47;17.43;;;;;;;8.24;100.00;95912.63;5072446;28;20250;-66
2020/12/06 03:09:44;;;;;;;35.07;16.93;;;;;;;8.20;100.00;95925.34;5072491;28;20196;-67
2020/12/06 03:12:12;;;;;;;33.53;18.33;;;;;;;8.26;100.00;95923.50;5072497;28;20235;-66
2020/12/06 03:14:40;;;;;;;37.40;19.47;;;;;;;8.20;100.00;95922.75;5072509;28;20658;-67
2020/12/06 03:17:08;;;;;;;34.83;18.50;;;;;;;8.18;100.00;95926.66;5072398;28;20587;-66
2020/12/06 03:19:36;;;;;;;33.57;19.83;;;;;;;8.20;100.00;95925.34;5072252;28;20242;-66
2020/12/06 03:22:03;;;;;;;30.17;16.10;;;;;;;8.28;100.00;95924.00;5072280;28;20247;-66
2020/12/06 03:24:30;;;;;;;28.00;15.90;;;;;;;8.28;100.00;95918.06;5072290;28;20200;-65
2020/12/06 03:26:57;;;;;;;28.13;15.37;;;;;;;8.35;100.00;95918.56;5072236;28;20284;-65
2020/12/06 03:29:25;;;;;;;30.27;16.23;;;;;;;8.41;100.00;95909.72;5072196;28;20262;-66
2020/12/06 03:31:52;;;;;;;27.97;16.33;;;;;;;8.32;100.00;95912.09;5072070;28;20754;-65
2020/12/06 03:34:19;;;;;;;31.47;18.70;;;;;;;8.28;100.00;95905.09;5072143;28;20246;-64
2020/12/06 03:36:46;;;;;;;30.73;18.30;;;;;;;8.28;100.00;95910.28;5072595;28;20192;-67
2020/12/06 03:39:15;;;;;;;39.43;22.40;;;;;;;8.24;100.00;95915.22;5071939;28;20196;-66
2020/12/06 03:41:45;;;;;;;42.20;23.67;;;;;;;8.25;100.00;95911.59;5072324;28;20292;-67
2020/12/06 03:44:15;;;;;;;37.30;23.97;;;;;;;8.14;100.00;95910.88;5071830;28;20208;-66
2020/12/06 03:46:43;;;;;;;42.57;24.67;;;;;;;8.25;100.00;95914.19;5072024;28;20299;-67
2020/12/06 03:49:10;;;;;;;30.97;16.30;;;;;;;8.31;100.00;95914.97;5071592;28;20196;-67
2020/12/06 03:51:36;;;;;;;29.77;17.43;;;;;;;8.35;100.00;95908.22;5071644;28;20235;-64
2020/12/06 03:54:03;;;;;;;30.73;16.77;;;;;;;8.35;100.00;95918.56;5071824;28;20192;-67
2020/12/06 03:56:30;;;;;;;29.77;17.03;;;;;;;8.41;100.00;95910.50;5071825;28;20228;-67
2020/12/06 03:59:00;;;;;;;34.33;19.13;;;;;;;8.37;100.00;95906.13;5071483;28;20258;-67
2020/12/06 04:01:27;;;;;;;32.87;18.37;;;;;;;8.35;100.00;95913.38;5071723;28;20570;-67
2020/12/06 04:03:56;;;;;;;37.67;21.27;;;;;;;8.40;100.00;95910.78;5071601;28;20189;-66
2020/12/06 04:06:23;;;;;;;39.03;22.23;;;;;;;8.34;100.00;95914.44;5071357;28;20280;-68
2020/12/06 04:08:50;;;;;;;35.17;20.17;;;;;;;8.33;100.00;95916.25;5071382;28;20192;-68
2020/12/06 04:11:17;;;;;;;32.37;19.67;;;;;;;8.40;100.00;95911.53;5071737;28;20299;-67
2020/12/06 04:13:43;;;;;;;33.17;19.07;;;;;;;8.39;100.00;95911.81;5071137;28;20203;-67
2020/12/06 04:16:10;;;;;;;34.00;18.97;;;;;;;8.35;100.00;95924.53;5071093;28;20239;-66
2020/12/06 04:18:37;;;;;;;33.60;18.10;;;;;;;8.28;100.00;95913.66;5071255;28;20199;-66
2020/12/06 04:21:05;;;;;;;35.23;19.10;;;;;;;8.30;100.00;95911.59;5071319;28;20281;-66
2020/12/06 04:23:31;;;;;;;32.63;17.73;;;;;;;8.31;100.00;95907.97;5070945;28;20201;-67
2020/12/06 04:25:58;;;;;;;31.13;18.70;;;;;;;8.36;100.00;95913.13;5070936;28;20188;-66
2020/12/06 04:28:25;;;;;;;27.97;16.27;;;;;;;8.34;100.00;95906.66;5070764;28;20212;-66
2020/12/06 04:30:52;;;;;;;29.27;16.97;;;;;;;8.36;100.00;95902.00;5071226;28;20207;-67
2020/12/06 04:33:19;;;;;;;29.73;17.80;;;;;;;8.29;100.00;95914.44;5070947;28;20195;-67
2020/12/06 04:35:46;;;;;;;32.53;16.67;;;;;;;8.31;100.00;95905.41;5070902;28;20228;-66
2020/12/06 04:38:13;;;;;;;28.33;16.30;;;;;;;8.27;100.00;95906.91;5070357;28;20199;-67
2020/12/06 04:40:40;;;;;;;32.87;17.63;;;;;;;8.26;100.00;95902.81;5070716;28;20234;-67
2020/12/06 04:43:07;;;;;;;32.50;15.77;;;;;;;8.32;100.00;95911.34;5070924;28;20192;-67
2020/12/06 04:45:34;;;;;;;27.33;15.80;;;;;;;8.34;100.00;95902.25;5071097;28;20204;-67
2020/12/06 04:48:05;;;;;;;30.27;16.77;;;;;;;8.33;100.00;95900.69;5070902;28;20192;-67
2020/12/06 04:50:33;;;;;;;31.57;16.70;;;;;;;8.21;100.00;95898.44;5071268;28;20204;-66
2020/12/06 04:53:01;;;;;;;32.67;16.93;;;;;;;8.22;100.00;95899.19;5070878;28;20193;-66
2020/12/06 04:55:31;;;;;;;29.50;17.07;;;;;;;8.22;100.00;95906.94;5070660;28;20224;-66
2020/12/06 04:57:59;;;;;;;27.53;17.07;;;;;;;8.14;100.00;95908.28;5070337;28;20193;-66
2020/12/06 05:00:33;;;;;;;29.77;17.17;;;;;;;8.16;100.00;95916.56;5070444;28;20232;-67
2020/12/06 05:03:01;;;;;;;31.80;17.30;;;;;;;8.13;100.00;95911.91;5070457;28;20199;-67
2020/12/06 05:05:35;;;;;;;30.30;16.83;;;;;;;8.19;100.00;95920.44;5070357;28;20693;-66
2020/12/06 05:08:05;;;;;;;33.70;18.07;;;;;;;8.08;100.00;95926.69;5070347;28;20691;-67
2020/12/06 05:10:37;;;;;;;34.00;18.93;;;;;;;8.12;100.00;95932.88;5070333;28;20589;-67
2020/12/06 05:13:05;;;;;;;33.17;19.17;;;;;;;8.05;100.00;95930.59;5070183;28;20230;-67
2020/12/06 05:15:32;;;;;;;33.10;17.93;;;;;;;8.15;100.00;95924.59;5070201;28;20232;-66
2020/12/06 05:17:59;;;;;;;37.90;20.63;;;;;;;8.08;100.00;95929.28;5070187;28;20230;-67
2020/12/06 05:20:27;;;;;;;34.43;18.67;;;;;;;8.15;100.00;95927.19;5069969;28;20197;-67
2020/12/06 05:22:54;;;;;;;34.30;17.47;;;;;;;8.16;100.00;95932.09;5070025;28;20196;-67
2020/12/06 05:25:22;;;;;;;31.37;16.57;;;;;;;8.28;100.00;95933.59;5070094;28;20199;-65
2020/12/06 05:27:50;;;;;;;34.07;17.53;;;;;;;8.25;100.00;95927.13;5069888;28;20603;-67
2020/12/06 05:30:18;;;;;;;35.80;19.20;;;;;;;8.22;100.00;95925.06;5070272;28;20196;-65
2020/12/06 05:32:45;;;;;;;32.77;17.13;;;;;;;8.23;100.00;95929.22;5070039;28;20200;-64
2020/12/06 05:35:13;;;;;;;38.13;18.23;;;;;;;8.20;100.00;95935.72;5070016;28;20281;-68
2020/12/06 05:37:42;;;;;;;36.80;19.00;;;;;;;8.24;100.00;95930.75;5070146;28;20618;-68
2020/12/06 05:40:10;;;;;;;41.33;21.07;;;;;;;8.29;100.00;95930.75;5069694;28;20236;-67
2020/12/06 05:42:39;;;;;;;51.30;26.03;;;;;;;8.20;100.00;95932.34;5069857;28;20203;-65
2020/12/06 05:45:07;;;;;;;103.43;61.13;;;;;;;8.25;100.00;95934.91;5069882;28;20582;-64
2020/12/06 05:47:34;;;;;;;63.73;34.40;;;;;;;8.19;100.00;95936.75;5069944;28;20226;-67
2020/12/06 05:50:01;;;;;;;106.03;48.27;;;;;;;8.21;100.00;95934.66;5072861;28;20218;-67
2020/12/06 05:52:29;;;;;;;98.57;42.80;;;;;;;8.17;100.00;95946.56;5074194;28;20196;-67
2020/12/06 05:54:57;;;;;;;62.63;29.70;;;;;;;8.20;100.00;95953.06;5073829;28;20232;-67
2020/12/06 05:57:26;;;;;;;59.87;28.10;;;;;;;8.22;100.00;95940.59;5073839;28;20192;-68
2020/12/06 05:59:56;;;;;;;53.53;25.77;;;;;;;8.30;100.00;95942.69;5073808;28;20710;-66
2020/12/06 06:02:24;;;;;;;62.00;31.17;;;;;;;8.21;100.00;95942.44;5073754;28;20208;-66
2020/12/06 06:04:52;;;;;;;46.90;26.47;;;;;;;8.19;100.00;95961.84;5073700;28;20207;-67
2020/12/06 06:07:22;;;;;;;88.07;46.43;;;;;;;8.20;100.00;95966.00;5073628;28;20691;-67
2020/12/06 06:09:54;;;;;;;53.97;28.27;;;;;;;8.19;100.00;95962.63;5073893;28;20581;-66
2020/12/06 06:12:42;;;;;;;38.07;19.97;;;;;;;8.13;100.00;95968.88;5073576;28;20206;-66
2020/12/06 06:15:09;;;;;;;55.40;28.10;;;;;;;8.19;100.00;95972.22;5073771;28;20223;-67
2020/12/06 06:17:39;;;;;;;49.37;25.97;;;;;;;8.14;100.00;95977.41;5073689;28;20291;-66
2020/12/06 06:20:05;;;;;;;47.30;25.13;;;;;;;8.26;100.00;95977.88;5073402;28;20203;-65
2020/12/06 06:22:36;;;;;;;70.17;35.87;;;;;;;8.22;100.00;95984.59;5073336;28;20243;-65
2020/12/06 06:25:04;;;;;;;46.47;22.87;;;;;;;8.21;100.00;95977.91;5073209;28;20203;-66
2020/12/06 06:27:35;;;;;;;49.20;24.63;;;;;;;8.17;100.00;95985.41;5073207;28;20202;-66
2020/12/06 06:30:03;;;;;;;46.33;24.73;;;;;;;8.13;100.00;95986.97;5073381;28;20218;-66
2020/12/06 06:32:30;;;;;;;56.40;31.20;;;;;;;8.22;100.00;95987.19;5073284;28;20189;-67
2020/12/06 06:34:58;;;;;;;53.30;30.33;;;;;;;8.26;100.00;95988.25;5073143;28;20224;-66
2020/12/06 06:37:29;;;;;;;55.03;30.00;;;;;;;8.28;100.00;95985.38;5073157;28;20211;-66
2020/12/06 06:39:59;;;;;;;48.90;27.60;;;;;;;8.25;100.00;95984.09;5072898;28;20294;-67
2020/12/06 06:42:27;;;;;;;40.77;24.27;;;;;;;8.33;100.00;95983.56;5073033;28;20629;-66
2020/12/06 06:45:03;;;;;;;52.67;29.90;;;;;;;8.33;100.00;95982.78;5073186;28;20595;-66
2020/12/06 06:47:30;;;;;;;47.30;26.87;;;;;;;8.29;100.00;95981.75;5073126;28;20221;-67
2020/12/06 06:49:59;;;;;;;49.93;27.17;;;;;;;8.30;100.00;95978.16;5072827;28;20265;-67
2020/12/06 06:52:27;;;;;;;67.17;35.53;;;;;;;8.26;100.00;95985.66;5072776;28;20193;-68
2020/12/06 06:54:56;;;;;;;79.07;38.57;;;;;;;8.35;100.00;95988.47;5072550;28;20197;-67
2020/12/06 06:57:24;;;;;;;107.93;53.17;;;;;;;8.32;100.00;95986.44;5072968;28;20200;-67
2020/12/06 06:59:53;;;;;;;56.50;28.77;;;;;;;8.33;100.00;95982.78;5072793;28;20201;-66
2020/12/06 07:02:32;;;;;;;60.87;32.30;;;;;;;8.35;100.00;95980.72;5072142;28;20747;-66
2020/12/06 07:05:00;;;;;;;65.20;34.40;;;;;;;8.34;100.00;95986.94;5072575;28;20204;-67
2020/12/06 07:07:43;;;;;;;61.93;34.17;;;;;;;8.29;100.00;95984.34;5072541;28;20283;-67
2020/12/06 07:10:11;;;;;;;70.10;36.33;;;;;;;8.39;100.00;95987.69;5072788;28;20200;-66
2020/12/06 07:12:39;;;;;;;86.77;43.33;;;;;;;8.30;100.00;95984.09;5072364;28;20695;-67
2020/12/06 07:15:07;;;;;;;98.10;46.77;;;;;;;8.34;100.00;95979.16;5072231;28;20231;-67
2020/12/06 07:17:34;;;;;;;77.40;36.93;;;;;;;8.33;100.00;95978.38;5072647;28;20223;-67
2020/12/06 07:20:03;;;;;;;69.73;32.17;;;;;;;8.44;100.00;95969.53;5072523;28;20195;-68
2020/12/06 07:22:31;;;;;;;62.93;31.53;;;;;;;8.35;100.00;95968.53;5072391;28;20580;-67
2020/12/06 07:24:58;;;;;;;61.60;33.33;;;;;;;8.42;100.00;95969.00;5072186;28;20192;-65
2020/12/06 07:27:25;;;;;;;50.13;26.30;;;;;;;8.54;100.00;95968.69;5072799;28;20192;-67
2020/12/06 07:29:52;;;;;;;49.37;26.43;;;;;;;8.44;100.00;95966.16;5071940;28;20216;-66
2020/12/06 07:32:20;;;;;;;42.33;23.23;;;;;;;8.46;100.00;95969.28;5072276;28;20195;-67
2020/12/06 07:34:47;;;;;;;49.50;27.57;;;;;;;8.52;100.00;95966.38;5071950;28;20188;-66
2020/12/06 07:37:15;;;;;;;79.67;37.90;;;;;;;8.60;100.00;95963.22;5071858;28;20279;-67
2020/12/06 07:39:43;;;;;;;61.37;31.03;;;;;;;8.59;100.00;95956.50;5071707;28;20231;-67
2020/12/06 07:42:10;;;;;;;53.33;29.67;;;;;;;8.61;100.00;95957.00;5071808;28;20200;-63
2020/12/06 07:44:47;;;;;;;48.13;28.77;;;;;;;8.71;100.00;95955.38;5071736;28;20283;-66
2020/12/06 07:47:14;;;;;;;41.13;24.00;;;;;;;8.71;100.00;95960.56;5071834;28;20299;-67
2020/12/06 07:49:45;;;;;;;36.77;21.47;;;;;;;8.69;100.00;95960.06;5071727;28;20608;-66
2020/12/06 07:52:20;;;;;;;38.67;21.03;;;;;;;8.73;100.00;95964.44;5071704;28;20196;-66
2020/12/06 07:54:58;;;;;;;71.40;37.07;;;;;;;8.75;100.00;95958.97;5071555;28;20245;-66
2020/12/06 07:57:29;;;;;;;243.60;101.87;;;;;;;8.81;100.00;95957.91;5071754;28;20200;-66
2020/12/06 07:59:57;;;;;;;163.80;77.90;;;;;;;8.76;100.00;95953.53;5071579;28;20207;-67
2020/12/06 08:02:25;;;;;;;76.43;42.50;;;;;;;8.78;100.00;95955.84;5071513;28;20199;-66
2020/12/06 08:04:53;;;;;;;49.70;29.70;;;;;;;8.79;100.00;95950.41;5071399;28;20201;-65
2020/12/06 08:07:27;;;;;;;49.37;28.83;;;;;;;8.85;100.00;95958.91;5071336;28;20196;-66
2020/12/06 08:09:57;;;;;;;45.47;23.90;;;;;;;9.04;100.00;95952.03;5071340;28;20211;-67
2020/12/06 08:12:25;;;;;;;42.70;23.23;;;;;;;9.03;100.00;95950.47;5070243;28;20188;-67
2020/12/06 08:15:00;;;;;;;39.13;23.90;;;;;;;8.96;100.00;95950.03;5070799;28;20192;-66
2020/12/06 08:17:27;;;;;;;44.53;24.00;;;;;;;9.06;100.00;95955.13;5071238;28;20203;-66
2020/12/06 08:19:54;;;;;;;54.50;35.07;;;;;;;9.13;100.00;95947.78;5071451;28;20188;-67
2020/12/06 08:22:22;;;;;;;45.40;25.47;;;;;;;9.15;100.00;95945.72;5071259;28;20203;-68
2020/12/06 08:24:48;;;;;;;54.03;29.87;;;;;;;9.20;100.00;95948.28;5071004;28;20192;-68
2020/12/06 08:27:21;;;;;;;45.87;26.47;;;;;;;9.26;100.00;95942.00;5071319;28;20604;-67
2020/12/06 08:29:48;;;;;;;55.80;29.77;;;;;;;9.28;100.00;95947.66;5070714;28;20212;-66
2020/12/06 08:32:15;;;;;;;49.27;27.40;;;;;;;9.19;100.00;95938.16;5070987;28;20208;-68
2020/12/06 08:34:55;;;;;;;58.87;33.33;;;;;;;9.27;100.00;95934.97;5071406;28;20192;-67
2020/12/06 08:37:25;;;;;;;51.93;28.63;;;;;;;9.15;100.00;95926.78;5071074;28;20192;-67
2020/12/06 08:39:51;;;;;;;48.97;28.50;;;;;;;9.35;100.00;95926.59;5070650;28;20240;-67
2020/12/06 08:42:21;;;;;;;47.60;25.57;;;;;;;9.49;100.00;95923.09;5070684;28;20192;-67
2020/12/06 08:44:59;;;;;;;36.47;22.53;;;;;;;9.45;100.00;95926.50;5070366;28;20192;-67
2020/12/06 08:47:43;;;;;;;37.17;23.50;;;;;;;9.28;100.00;95926.91;5070503;28;20192;-67
2020/12/06 08:50:14;;;;;;;39.93;23.30;;;;;;;9.29;100.00;95933.66;5070791;28;20214;-67
2020/12/06 08:52:42;;;;;;;46.47;25.00;;;;;;;9.30;100.00;95935.22;5070545;28;20197;-66
2020/12/06 08:55:30;;;;;;;44.07;24.83;;;;;;;9.28;100.00;95926.91;5070527;28;20203;-67
2020/12/06 08:57:58;;;;;;;42.57;24.50;;;;;;;9.20;100.00;95930.13;5070385;28;20202;-67
2020/12/06 09:00:28;;;;;;;48.40;25.30;;;;;;;9.15;100.00;95929.38;5070434;28;20192;-67
2020/12/06 09:02:56;;;;;;;57.17;29.77;;;;;;;9.21;100.00;95925.72;5070207;28;20198;-67
2020/12/06 09:05:23;;;;;;;65.53;34.03;;;;;;;9.28;100.00;95926.16;5070669;28;20321;-67
2020/12/06 09:07:51;;;;;;;52.67;27.80;;;;;;;9.26;100.00;95918.66;5070191;28;20193;-64
2020/12/06 09:10:18;;;;;;;57.47;32.73;;;;;;;9.31;100.00;95926.38;5070429;28;20280;-67
2020/12/06 09:12:44;;;;;;;55.27;30.40;;;;;;;9.36;100.00;95915.97;5070382;28;20197;-67
2020/12/06 09:15:11;;;;;;;40.87;24.60;;;;;;;9.52;100.00;95917.34;5070425;28;20292;-66
2020/12/06 09:17:38;;;;;;;48.47;30.40;;;;;;;9.44;100.00;95914.59;5070223;28;20246;-67
2020/12/06 09:20:05;;;;;;;59.40;31.97;;;;;;;9.45;100.00;95911.72;5069983;28;20193;-66
2020/12/06 09:22:32;;;;;;;81.03;40.03;;;;;;;9.48;100.00;95907.78;5070012;28;20195;-65
2020/12/06 09:24:59;;;;;;;48.20;27.50;;;;;;;9.52;100.00;95896.59;5069799;28;20303;-67
2020/12/06 09:27:26;;;;;;;76.43;37.20;;;;;;;9.63;100.00;95892.06;5069935;28;20192;-66
2020/12/06 09:29:53;;;;;;;71.43;37.90;;;;;;;9.70;100.00;95887.31;5069907;28;20223;-67
2020/12/06 09:32:20;;;;;;;62.10;30.80;;;;;;;9.72;100.00;95890.41;5070105;28;20580;-66
2020/12/06 09:34:46;;;;;;;75.83;37.47;;;;;;;9.71;100.00;95891.47;5069788;28;20664;-65
2020/12/06 09:37:19;;;;;;;102.80;44.43;;;;;;;9.70;100.00;95891.75;5069825;28;20270;-66
2020/12/06 09:39:46;;;;;;;271.93;107.50;;;;;;;9.65;100.00;95895.16;5069764;28;20234;-67
2020/12/06 09:42:14;;;;;;;169.23;67.57;;;;;;;9.59;100.00;95892.91;5069826;28;20196;-67
2020/12/06 09:44:41;;;;;;;150.20;63.13;;;;;;;9.63;100.00;95896.47;5069744;28;20198;-66
2020/12/06 09:47:07;;;;;;;188.00;76.20;;;;;;;9.47;100.00;95888.84;5069846;28;20201;-66
2020/12/06 09:49:35;;;;;;;263.03;101.87;;;;;;;9.40;100.00;95888.44;5069685;28;20203;-67
2020/12/06 09:52:02;;;;;;;206.07;82.33;;;;;;;9.25;100.00;95893.00;5069733;28;20477;-67
2020/12/06 09:54:29;;;;;;;151.53;61.07;;;;;;;9.21;100.00;95885.00;5069748;28;20653;-67
2020/12/06 09:56:56;;;;;;;131.57;47.90;;;;;;;9.18;100.00;95880.34;5069638;28;20232;-67
2020/12/06 09:59:23;;;;;;;82.73;36.10;;;;;;;9.14;100.00;95873.38;5069721;28;20196;-66
2020/12/06 10:01:50;;;;;;;97.93;41.53;;;;;;;9.21;100.00;95868.66;5069716;28;20196;-64
2020/12/06 10:04:17;;;;;;;95.23;39.53;;;;;;;9.07;100.00;95869.28;5069758;28;20690;-64
2020/12/06 10:06:44;;;;;;;99.93;41.20;;;;;;;9.13;100.00;95861.47;5069757;28;20227;-66
2020/12/06 10:09:11;;;;;;;214.80;65.50;;;;;;;9.21;100.00;95853.88;5069796;28;20273;-66
2020/12/06 10:11:37;;;;;;;103.30;40.90;;;;;;;9.26;100.00;95850.47;5069488;28;20196;-67
2020/12/06 10:14:04;;;;;;;184.27;59.73;;;;;;;9.15;100.00;95847.19;5069470;28;20235;-65
2020/12/06 10:16:32;;;;;;;203.37;69.80;;;;;;;9.16;100.00;95840.97;5069488;28;20224;-66
2020/12/06 10:18:59;;;;;;;239.37;78.30;;;;;;;9.21;100.00;95843.50;5069541;28;20283;-66
2020/12/06 10:21:25;;;;;;;379.67;117.03;;;;;;;9.15;100.00;95842.00;5069917;28;20224;-66
2020/12/06 10:23:52;;;;;;;338.07;103.23;;;;;;;9.15;100.00;95844.59;5069749;28;20196;-63
2020/12/06 10:26:19;;;;;;;97.17;40.67;;;;;;;9.19;100.00;95834.44;5069557;28;20193;-66
2020/12/06 10:28:46;;;;;;;162.50;60.67;;;;;;;9.20;100.00;95830.81;5069369;28;20264;-67
2020/12/06 10:31:13;;;;;;;299.30;93.77;;;;;;;9.20;100.00;95830.81;5069291;28;20207;-62
2020/12/06 10:33:40;;;;;;;117.70;49.50;;;;;;;9.28;100.00;95830.97;5069690;28;20621;-65
2020/12/06 10:36:07;;;;;;;257.20;89.13;;;;;;;9.29;100.00;95822.16;5070745;28;20607;-66
2020/12/06 10:38:34;;;;;;;153.53;61.13;;;;;;;9.31;100.00;95824.47;5073138;28;20279;-69
2020/12/06 10:41:01;;;;;;;173.37;67.60;;;;;;;9.22;100.00;95826.88;5072887;28;20610;-66
2020/12/06 10:43:27;;;;;;;250.67;83.60;;;;;;;9.19;100.00;95814.47;5072959;28;20203;-68
2020/12/06 10:45:54;;;;;;;250.70;84.50;;;;;;;9.12;100.00;95811.44;5072803;28;20192;-68
2020/12/06 10:48:21;;;;;;;218.50;74.57;;;;;;;9.14;100.00;95817.13;5072880;28;20202;-67
2020/12/06 10:50:52;;;;;;;172.20;62.80;;;;;;;9.20;100.00;95816.03;5072944;28;20195;-67
2020/12/06 10:53:19;;;;;;;299.60;102.93;;;;;;;9.01;100.00;95821.16;5072832;28;20196;-67
2020/12/06 10:55:46;;;;;;;216.00;75.70;;;;;;;9.01;100.00;95815.97;5072750;28;20228;-67
2020/12/06 10:58:13;;;;;;;146.40;60.53;;;;;;;9.02;100.00;95816.72;5072715;28;20223;-67
2020/12/06 11:00:40;;;;;;;141.43;56.37;;;;;;;9.08;100.00;95813.03;5072724;28;20198;-67
2020/12/06 11:03:07;;;;;;;122.27;51.70;;;;;;;8.95;100.00;95808.50;5072919;28;20196;-66
2020/12/06 11:05:33;;;;;;;164.17;63.97;;;;;;;8.87;100.00;95811.69;5072870;28;20193;-66
2020/12/06 11:08:01;;;;;;;115.40;50.63;;;;;;;9.00;100.00;95806.66;5072469;28;20200;-68
2020/12/06 11:10:28;;;;;;;81.97;38.83;;;;;;;9.08;100.00;95807.84;5072352;28;20196;-68
2020/12/06 11:12:55;;;;;;;77.60;36.33;;;;;;;8.99;100.00;95804.31;5072447;28;20189;-67
2020/12/06 11:15:21;;;;;;;138.07;58.17;;;;;;;9.14;100.00;95806.75;5072352;28;20203;-67
2020/12/06 11:17:48;;;;;;;91.13;42.60;;;;;;;9.23;100.00;95797.31;5072544;28;20294;-67
2020/12/06 11:20:15;;;;;;;75.70;37.17;;;;;;;9.22;100.00;95793.16;5072470;28;20193;-68
2020/12/06 11:22:42;;;;;;;80.97;38.33;;;;;;;9.20;100.00;95792.69;5072479;28;20285;-67
2020/12/06 11:25:10;;;;;;;82.80;38.23;;;;;;;9.30;100.00;95792.56;5072314;28;20288;-63